sensor_id;sensor_type;location;lat;lon;timestamp;pressure;altitude;pressure_sealevel;temperature;humidity
33265;BME280;31404;53.974;-1.086;2023-03-13T00:00:37;98694.56;;;7.52;100.00
33265;BME280;31404;53.974;-1.086;2023-03-13T00:05:35;98678.88;;;7.04;100.00
33265;BME280;31404;53.974;-1.086;2023-03-13T00:10:36;98675.20;;;8.10;100.00
33265;BME280;31404;53.974;-1.086;2023-03-13T00:15:35;98673.03;;;7.81;100.00
33265;BME280;31404;53.974;-1.086;2023-03-13T00:20:34;98658.17;;;8.47;100.00
33265;BME280;31404;53.974;-1.086;2023-03-13T00:25:34;98654.25;;;7.80;100.00
33265;BME280;31404;53.974;-1.086;2023-03-13T00:30:35;98633.39;;;8.31;100.00
33265;BME280;31404;53.974;-1.086;2023-03-13T00:35:35;98630.45;;;7.85;100.00
33265;BME280;31404;53.974;-1.086;2023-03-13T00:40:35;98624.29;;;8.84;100.00
33265;BME280;31404;53.974;-1.086;2023-03-13T00:45:34;98616.89;;;8.65;100.00
33265;BME280;31404;53.974;-1.086;2023-03-13T00:50:35;98598.30;;;9.51;100.00
33265;BME280;31404;53.974;-1.086;2023-03-13T00:55:35;98594.63;;;10.28;100.00
33265;BME280;31404;53.974;-1.086;2023-03-13T01:00:35;98575.67;;;8.57;100.00
33265;BME280;31404;53.974;-1.086;2023-03-13T01:05:35;98576.79;;;8.37;100.00
33265;BME280;31404;53.974;-1.086;2023-03-13T01:10:35;98575.21;;;9.09;100.00
33265;BME280;31404;53.974;-1.086;2023-03-13T01:15:35;98554.19;;;10.32;100.00
33265;BME280;31404;53.974;-1.086;2023-03-13T01:20:34;98542.73;;;10.39;100.00
33265;BME280;31404;53.974;-1.086;2023-03-13T01:25:36;98523.66;;;9.09;100.00
33265;BME280;31404;53.974;-1.086;2023-03-13T01:30:35;98503.90;;;9.84;100.00
33265;BME280;31404;53.974;-1.086;2023-03-13T01:35:35;98472.13;;;9.87;100.00
33265;BME280;31404;53.974;-1.086;2023-03-13T01:50:35;98435.89;;;8.02;100.00
33265;BME280;31404;53.974;-1.086;2023-03-13T01:55:34;98426.01;;;8.85;100.00
33265;BME280;31404;53.974;-1.086;2023-03-13T02:00:35;98383.66;;;8.66;100.00
33265;BME280;31404;53.974;-1.086;2023-03-13T02:05:35;98340.57;;;8.97;100.00
33265;BME280;31404;53.974;-1.086;2023-03-13T02:15:34;98330.16;;;9.09;100.00
33265;BME280;31404;53.974;-1.086;2023-03-13T02:20:35;98352.02;;;9.56;100.00
33265;BME280;31404;53.974;-1.086;2023-03-13T02:30:34;98295.58;;;9.11;100.00
33265;BME280;31404;53.974;-1.086;2023-03-13T02:35:35;98310.35;;;9.96;100.00
33265;BME280;31404;53.974;-1.086;2023-03-13T02:40:36;98300.42;;;9.23;100.00
33265;BME280;31404;53.974;-1.086;2023-03-13T02:45:35;98281.80;;;9.53;100.00
33265;BME280;31404;53.974;-1.086;2023-03-13T02:50:36;98256.40;;;9.13;100.00
33265;BME280;31404;53.974;-1.086;2023-03-13T03:00:35;98276.39;;;8.99;100.00
33265;BME280;31404;53.974;-1.086;2023-03-13T03:05:35;98257.38;;;9.36;100.00
33265;BME280;31404;53.974;-1.086;2023-03-13T03:10:36;98254.41;;;10.04;100.00
33265;BME280;31404;53.974;-1.086;2023-03-13T03:15:35;98243.39;;;10.06;100.00
33265;BME280;31404;53.974;-1.086;2023-03-13T03:20:35;98230.21;;;9.86;100.00
33265;BME280;31404;53.974;-1.086;2023-03-13T03:25:35;98220.83;;;10.31;100.00
33265;BME280;31404;53.974;-1.086;2023-03-13T03:30:34;98203.16;;;10.70;100.00
33265;BME280;31404;53.974;-1.086;2023-03-13T03:35:34;98179.96;;;10.48;100.00
33265;BME280;31404;53.974;-1.086;2023-03-13T03:40:35;98177.95;;;8.24;100.00
33265;BME280;31404;53.974;-1.086;2023-03-13T03:45:34;98176.46;;;8.02;100.00
33265;BME280;31404;53.974;-1.086;2023-03-13T03:50:34;98174.92;;;8.09;100.00
33265;BME280;31404;53.974;-1.086;2023-03-13T03:55:35;98165.41;;;8.16;100.00
33265;BME280;31404;53.974;-1.086;2023-03-13T04:00:42;98165.19;;;8.43;100.00
33265;BME280;31404;53.974;-1.086;2023-03-13T04:05:35;98155.90;;;8.79;100.00
33265;BME280;31404;53.974;-1.086;2023-03-13T04:10:34;98145.87;;;9.16;100.00
33265;BME280;31404;53.974;-1.086;2023-03-13T04:15:36;98157.77;;;9.37;100.00
33265;BME280;31404;53.974;-1.086;2023-03-13T04:20:35;98151.24;;;8.98;100.00
33265;BME280;31404;53.974;-1.086;2023-03-13T04:35:35;98125.14;;;8.34;100.00
33265;BME280;31404;53.974;-1.086;2023-03-13T04:40:35;98130.77;;;9.06;100.00
33265;BME280;31404;53.974;-1.086;2023-03-13T04:45:34;98127.01;;;9.15;100.00
33265;BME280;31404;53.974;-1.086;2023-03-13T04:50:34;98101.69;;;9.32;100.00
33265;BME280;31404;53.974;-1.086;2023-03-13T04:55:34;98084.80;;;9.21;100.00
33265;BME280;31404;53.974;-1.086;2023-03-13T05:00:34;98084.29;;;8.49;100.00
33265;BME280;31404;53.974;-1.086;2023-03-13T05:05:35;98072.21;;;8.99;100.00
33265;BME280;31404;53.974;-1.086;2023-03-13T05:10:34;98059.26;;;9.56;100.00
33265;BME280;31404;53.974;-1.086;2023-03-13T05:15:34;98059.74;;;8.65;100.00
33265;BME280;31404;53.974;-1.086;2023-03-13T05:20:36;98028.15;;;9.05;100.00
33265;BME280;31404;53.974;-1.086;2023-03-13T05:25:34;98022.87;;;8.52;100.00
33265;BME280;31404;53.974;-1.086;2023-03-13T05:30:35;98014.69;;;8.33;100.00
33265;BME280;31404;53.974;-1.086;2023-03-13T05:35:36;98000.22;;;8.99;100.00
33265;BME280;31404;53.974;-1.086;2023-03-13T05:40:35;97994.62;;;8.28;100.00
33265;BME280;31404;53.974;-1.086;2023-03-13T05:45:35;97982.19;;;8.61;100.00
33265;BME280;31404;53.974;-1.086;2023-03-13T05:50:35;97976.11;;;9.22;100.00
33265;BME280;31404;53.974;-1.086;2023-03-13T05:55:35;97971.64;;;9.31;100.00
33265;BME280;31404;53.974;-1.086;2023-03-13T06:00:35;97968.35;;;9.19;100.00
33265;BME280;31404;53.974;-1.086;2023-03-13T06:05:35;97954.09;;;8.89;100.00
33265;BME280;31404;53.974;-1.086;2023-03-13T06:10:35;97964.63;;;7.67;100.00
33265;BME280;31404;53.974;-1.086;2023-03-13T06:15:35;97982.64;;;7.42;100.00
33265;BME280;31404;53.974;-1.086;2023-03-13T06:20:34;97984.10;;;7.36;100.00
33265;BME280;31404;53.974;-1.086;2023-03-13T06:25:36;97959.22;;;7.69;100.00
33265;BME280;31404;53.974;-1.086;2023-03-13T06:30:35;97962.99;;;7.82;100.00
33265;BME280;31404;53.974;-1.086;2023-03-13T06:35:34;97946.31;;;7.73;100.00
33265;BME280;31404;53.974;-1.086;2023-03-13T06:40:35;97956.21;;;6.39;100.00
33265;BME280;31404;53.974;-1.086;2023-03-13T06:45:36;97952.33;;;7.05;100.00
33265;BME280;31404;53.974;-1.086;2023-03-13T06:55:35;97938.32;;;7.65;100.00
33265;BME280;31404;53.974;-1.086;2023-03-13T07:00:35;97932.23;;;7.71;100.00
33265;BME280;31404;53.974;-1.086;2023-03-13T07:05:35;97919.03;;;8.06;100.00
33265;BME280;31404;53.974;-1.086;2023-03-13T07:10:34;97919.00;;;8.02;100.00
33265;BME280;31404;53.974;-1.086;2023-03-13T07:15:34;97930.21;;;6.96;100.00
33265;BME280;31404;53.974;-1.086;2023-03-13T07:20:34;97930.70;;;6.64;100.00
33265;BME280;31404;53.974;-1.086;2023-03-13T07:25:34;97922.62;;;6.99;100.00
33265;BME280;31404;53.974;-1.086;2023-03-13T07:30:34;97911.07;;;6.60;100.00
33265;BME280;31404;53.974;-1.086;2023-03-13T07:35:35;97900.49;;;6.83;100.00
33265;BME280;31404;53.974;-1.086;2023-03-13T07:40:35;97887.83;;;7.25;100.00
33265;BME280;31404;53.974;-1.086;2023-03-13T07:45:35;97875.24;;;7.30;100.00
33265;BME280;31404;53.974;-1.086;2023-03-13T07:50:35;97860.28;;;7.02;100.00
33265;BME280;31404;53.974;-1.086;2023-03-13T07:55:34;97873.40;;;7.36;100.00
33265;BME280;31404;53.974;-1.086;2023-03-13T08:00:36;97866.69;;;7.25;100.00
33265;BME280;31404;53.974;-1.086;2023-03-13T08:05:35;97873.95;;;7.49;100.00
33265;BME280;31404;53.974;-1.086;2023-03-13T08:10:35;97870.14;;;7.71;100.00
33265;BME280;31404;53.974;-1.086;2023-03-13T08:15:35;97884.69;;;7.53;100.00
33265;BME280;31404;53.974;-1.086;2023-03-13T08:20:34;97873.53;;;7.72;100.00
33265;BME280;31404;53.974;-1.086;2023-03-13T08:25:35;97853.53;;;7.91;100.00
33265;BME280;31404;53.974;-1.086;2023-03-13T08:30:35;97867.87;;;8.28;100.00
33265;BME280;31404;53.974;-1.086;2023-03-13T08:35:35;97860.05;;;7.95;100.00
33265;BME280;31404;53.974;-1.086;2023-03-13T08:40:35;97862.25;;;7.52;100.00
33265;BME280;31404;53.974;-1.086;2023-03-13T08:45:35;97853.94;;;7.80;100.00
33265;BME280;31404;53.974;-1.086;2023-03-13T08:50:35;97847.09;;;8.02;100.00
33265;BME280;31404;53.974;-1.086;2023-03-13T08:55:35;97843.76;;;7.37;100.00
33265;BME280;31404;53.974;-1.086;2023-03-13T09:00:34;97835.60;;;7.55;100.00
33265;BME280;31404;53.974;-1.086;2023-03-13T09:05:36;97829.52;;;7.60;100.00
33265;BME280;31404;53.974;-1.086;2023-03-13T09:10:34;97844.88;;;7.11;100.00
33265;BME280;31404;53.974;-1.086;2023-03-13T09:15:34;97843.87;;;6.73;100.00
33265;BME280;31404;53.974;-1.086;2023-03-13T09:20:35;97826.52;;;7.56;100.00
33265;BME280;31404;53.974;-1.086;2023-03-13T09:25:37;97856.82;;;7.07;100.00
33265;BME280;31404;53.974;-1.086;2023-03-13T09:30:35;97836.49;;;7.48;100.00
33265;BME280;31404;53.974;-1.086;2023-03-13T09:35:34;97816.79;;;7.62;100.00
33265;BME280;31404;53.974;-1.086;2023-03-13T09:40:39;97814.71;;;7.60;100.00
33265;BME280;31404;53.974;-1.086;2023-03-13T09:50:38;97798.21;;;7.35;100.00
33265;BME280;31404;53.974;-1.086;2023-03-13T10:00:36;97768.92;;;7.74;100.00
33265;BME280;31404;53.974;-1.086;2023-03-13T10:05:37;97773.76;;;8.02;100.00
33265;BME280;31404;53.974;-1.086;2023-03-13T10:20:35;97807.27;;;8.66;100.00
33265;BME280;31404;53.974;-1.086;2023-03-13T10:25:36;97812.14;;;7.66;100.00
33265;BME280;31404;53.974;-1.086;2023-03-13T10:30:36;97817.81;;;7.58;100.00
33265;BME280;31404;53.974;-1.086;2023-03-13T10:35:37;97811.76;;;7.87;100.00
33265;BME280;31404;53.974;-1.086;2023-03-13T10:40:36;97810.80;;;7.75;100.00
33265;BME280;31404;53.974;-1.086;2023-03-13T10:45:42;97809.58;;;7.88;100.00
33265;BME280;31404;53.974;-1.086;2023-03-13T10:50:34;97808.68;;;7.41;100.00
33265;BME280;31404;53.974;-1.086;2023-03-13T10:55:34;97815.41;;;7.76;100.00
33265;BME280;31404;53.974;-1.086;2023-03-13T11:00:36;97822.28;;;7.67;100.00
33265;BME280;31404;53.974;-1.086;2023-03-13T11:10:35;97807.88;;;7.68;100.00
33265;BME280;31404;53.974;-1.086;2023-03-13T11:20:36;97825.93;;;7.34;100.00
33265;BME280;31404;53.974;-1.086;2023-03-13T11:35:38;97842.86;;;7.84;100.00
33265;BME280;31404;53.974;-1.086;2023-03-13T11:40:38;97838.54;;;8.06;100.00
33265;BME280;31404;53.974;-1.086;2023-03-13T12:00:37;97850.62;;;7.81;100.00
33265;BME280;31404;53.974;-1.086;2023-03-13T12:10:38;97857.96;;;8.24;100.00
33265;BME280;31404;53.974;-1.086;2023-03-13T12:15:39;97848.32;;;8.07;100.00
33265;BME280;31404;53.974;-1.086;2023-03-13T12:25:38;97838.23;;;8.33;100.00
33265;BME280;31404;53.974;-1.086;2023-03-13T12:30:38;97838.94;;;8.08;100.00
33265;BME280;31404;53.974;-1.086;2023-03-13T12:35:36;97841.38;;;8.09;100.00
33265;BME280;31404;53.974;-1.086;2023-03-13T12:40:38;97840.35;;;8.13;100.00
33265;BME280;31404;53.974;-1.086;2023-03-13T12:45:37;97842.31;;;7.93;100.00
33265;BME280;31404;53.974;-1.086;2023-03-13T13:00:38;97862.20;;;7.51;100.00
33265;BME280;31404;53.974;-1.086;2023-03-13T13:05:36;97865.68;;;7.42;100.00
33265;BME280;31404;53.974;-1.086;2023-03-13T13:10:35;97868.14;;;7.81;100.00
33265;BME280;31404;53.974;-1.086;2023-03-13T13:15:34;97858.95;;;7.31;100.00
33265;BME280;31404;53.974;-1.086;2023-03-13T13:20:41;97867.34;;;7.98;100.00
33265;BME280;31404;53.974;-1.086;2023-03-13T13:25:35;97886.09;;;7.59;100.00
33265;BME280;31404;53.974;-1.086;2023-03-13T13:30:35;97869.70;;;8.34;100.00
33265;BME280;31404;53.974;-1.086;2023-03-13T13:35:36;97875.15;;;7.77;100.00
33265;BME280;31404;53.974;-1.086;2023-03-13T13:40:35;97884.06;;;7.55;100.00
33265;BME280;31404;53.974;-1.086;2023-03-13T13:45:36;97878.78;;;7.79;100.00
33265;BME280;31404;53.974;-1.086;2023-03-13T13:50:34;97878.34;;;7.38;100.00
33265;BME280;31404;53.974;-1.086;2023-03-13T14:00:39;97878.25;;;8.13;100.00
33265;BME280;31404;53.974;-1.086;2023-03-13T14:10:37;97884.56;;;8.00;100.00
33265;BME280;31404;53.974;-1.086;2023-03-13T14:15:35;97882.62;;;7.34;100.00
33265;BME280;31404;53.974;-1.086;2023-03-13T14:20:36;97908.97;;;7.84;100.00
33265;BME280;31404;53.974;-1.086;2023-03-13T14:35:34;97887.48;;;7.64;100.00
33265;BME280;31404;53.974;-1.086;2023-03-13T14:40:37;97889.03;;;7.41;100.00
33265;BME280;31404;53.974;-1.086;2023-03-13T14:45:35;97888.35;;;7.40;100.00
33265;BME280;31404;53.974;-1.086;2023-03-13T14:50:35;97884.92;;;7.33;100.00
33265;BME280;31404;53.974;-1.086;2023-03-13T14:55:35;97876.19;;;7.87;100.00
33265;BME280;31404;53.974;-1.086;2023-03-13T15:00:37;97865.94;;;8.49;100.00
33265;BME280;31404;53.974;-1.086;2023-03-13T15:05:35;97859.28;;;8.58;100.00
33265;BME280;31404;53.974;-1.086;2023-03-13T15:10:36;97864.35;;;8.07;100.00
33265;BME280;31404;53.974;-1.086;2023-03-13T15:15:35;97857.21;;;8.16;100.00
33265;BME280;31404;53.974;-1.086;2023-03-13T15:20:35;97860.67;;;7.92;100.00
33265;BME280;31404;53.974;-1.086;2023-03-13T15:25:35;97868.63;;;7.42;100.00
33265;BME280;31404;53.974;-1.086;2023-03-13T15:30:37;97863.18;;;7.35;100.00
33265;BME280;31404;53.974;-1.086;2023-03-13T15:35:35;97870.59;;;7.37;100.00
33265;BME280;31404;53.974;-1.086;2023-03-13T15:40:34;97862.58;;;6.90;100.00
33265;BME280;31404;53.974;-1.086;2023-03-13T15:45:36;97870.03;;;7.21;100.00
33265;BME280;31404;53.974;-1.086;2023-03-13T15:50:35;97858.59;;;6.86;100.00
33265;BME280;31404;53.974;-1.086;2023-03-13T15:55:36;97860.79;;;6.56;100.00
33265;BME280;31404;53.974;-1.086;2023-03-13T16:00:35;97866.41;;;7.16;100.00
33265;BME280;31404;53.974;-1.086;2023-03-13T16:05:35;97862.71;;;7.05;100.00
33265;BME280;31404;53.974;-1.086;2023-03-13T16:10:35;97856.90;;;7.77;100.00
33265;BME280;31404;53.974;-1.086;2023-03-13T16:15:35;97863.53;;;7.20;100.00
33265;BME280;31404;53.974;-1.086;2023-03-13T16:20:34;97853.84;;;7.30;100.00
33265;BME280;31404;53.974;-1.086;2023-03-13T16:25:34;97856.02;;;7.39;100.00
33265;BME280;31404;53.974;-1.086;2023-03-13T16:30:35;97853.84;;;7.84;100.00
33265;BME280;31404;53.974;-1.086;2023-03-13T16:35:35;97856.59;;;6.72;100.00
33265;BME280;31404;53.974;-1.086;2023-03-13T16:40:35;97858.83;;;7.10;100.00
33265;BME280;31404;53.974;-1.086;2023-03-13T16:45:35;97872.02;;;6.91;100.00
33265;BME280;31404;53.974;-1.086;2023-03-13T16:50:35;97872.54;;;8.06;100.00
33265;BME280;31404;53.974;-1.086;2023-03-13T16:55:35;97877.84;;;7.58;100.00
33265;BME280;31404;53.974;-1.086;2023-03-13T17:00:35;97882.10;;;7.48;100.00
33265;BME280;31404;53.974;-1.086;2023-03-13T17:05:35;97883.02;;;6.78;100.00
33265;BME280;31404;53.974;-1.086;2023-03-13T17:10:35;97879.89;;;7.10;100.00
33265;BME280;31404;53.974;-1.086;2023-03-13T17:15:34;97886.87;;;6.37;100.00
33265;BME280;31404;53.974;-1.086;2023-03-13T17:20:35;97897.26;;;7.10;100.00
33265;BME280;31404;53.974;-1.086;2023-03-13T17:25:35;97895.41;;;7.44;100.00
33265;BME280;31404;53.974;-1.086;2023-03-13T17:30:35;97901.10;;;6.65;100.00
33265;BME280;31404;53.974;-1.086;2023-03-13T17:35:35;97908.49;;;6.92;100.00
33265;BME280;31404;53.974;-1.086;2023-03-13T17:40:34;97912.66;;;8.17;100.00
33265;BME280;31404;53.974;-1.086;2023-03-13T17:45:34;97918.97;;;7.28;100.00
33265;BME280;31404;53.974;-1.086;2023-03-13T17:50:34;97928.72;;;6.69;100.00
33265;BME280;31404;53.974;-1.086;2023-03-13T17:55:34;97937.31;;;6.48;100.00
33265;BME280;31404;53.974;-1.086;2023-03-13T18:00:34;97942.01;;;5.91;100.00
33265;BME280;31404;53.974;-1.086;2023-03-13T18:05:34;97937.35;;;6.64;100.00
33265;BME280;31404;53.974;-1.086;2023-03-13T18:10:34;97936.24;;;7.04;100.00
33265;BME280;31404;53.974;-1.086;2023-03-13T18:15:34;97945.87;;;7.38;100.00
33265;BME280;31404;53.974;-1.086;2023-03-13T18:20:34;97955.24;;;6.94;100.00
33265;BME280;31404;53.974;-1.086;2023-03-13T18:25:34;97952.51;;;6.93;100.00
33265;BME280;31404;53.974;-1.086;2023-03-13T18:30:34;97956.27;;;7.21;100.00
33265;BME280;31404;53.974;-1.086;2023-03-13T18:35:34;97952.21;;;7.48;100.00
33265;BME280;31404;53.974;-1.086;2023-03-13T18:40:34;97952.77;;;7.44;100.00
33265;BME280;31404;53.974;-1.086;2023-03-13T18:45:34;97950.31;;;7.26;100.00
33265;BME280;31404;53.974;-1.086;2023-03-13T18:50:35;97953.47;;;6.54;100.00
33265;BME280;31404;53.974;-1.086;2023-03-13T18:55:35;97948.87;;;6.93;100.00
33265;BME280;31404;53.974;-1.086;2023-03-13T19:00:35;97941.74;;;6.90;100.00
33265;BME280;31404;53.974;-1.086;2023-03-13T19:05:34;97948.89;;;7.49;100.00
33265;BME280;31404;53.974;-1.086;2023-03-13T19:10:34;97946.76;;;7.42;100.00
33265;BME280;31404;53.974;-1.086;2023-03-13T19:15:37;97949.10;;;8.29;100.00
33265;BME280;31404;53.974;-1.086;2023-03-13T19:20:35;97953.85;;;7.59;100.00
33265;BME280;31404;53.974;-1.086;2023-03-13T19:25:35;97956.41;;;5.62;100.00
33265;BME280;31404;53.974;-1.086;2023-03-13T19:30:35;97971.02;;;4.99;100.00
33265;BME280;31404;53.974;-1.086;2023-03-13T19:35:35;97965.16;;;6.32;100.00
33265;BME280;31404;53.974;-1.086;2023-03-13T19:40:34;97976.87;;;7.72;100.00
33265;BME280;31404;53.974;-1.086;2023-03-13T19:45:34;97990.97;;;7.01;100.00
33265;BME280;31404;53.974;-1.086;2023-03-13T19:50:35;98003.18;;;7.53;100.00
33265;BME280;31404;53.974;-1.086;2023-03-13T19:55:35;98014.25;;;7.59;100.00
33265;BME280;31404;53.974;-1.086;2023-03-13T20:00:35;98032.91;;;6.51;100.00
33265;BME280;31404;53.974;-1.086;2023-03-13T20:05:34;98053.79;;;5.42;100.00
33265;BME280;31404;53.974;-1.086;2023-03-13T20:10:34;98086.04;;;4.09;100.00
33265;BME280;31404;53.974;-1.086;2023-03-13T20:15:34;98110.12;;;3.33;100.00
33265;BME280;31404;53.974;-1.086;2023-03-13T20:20:35;98141.70;;;3.01;100.00
33265;BME280;31404;53.974;-1.086;2023-03-13T20:25:35;98164.58;;;2.59;100.00
33265;BME280;31404;53.974;-1.086;2023-03-13T20:35:37;98207.25;;;3.01;100.00
33265;BME280;31404;53.974;-1.086;2023-03-13T20:40:34;98213.83;;;2.54;100.00
33265;BME280;31404;53.974;-1.086;2023-03-13T20:45:34;98226.77;;;2.61;100.00
33265;BME280;31404;53.974;-1.086;2023-03-13T20:50:34;98243.05;;;3.59;100.00
33265;BME280;31404;53.974;-1.086;2023-03-13T20:55:36;98244.08;;;2.76;100.00
33265;BME280;31404;53.974;-1.086;2023-03-13T21:00:34;98252.86;;;2.38;100.00
33265;BME280;31404;53.974;-1.086;2023-03-13T21:05:37;98259.78;;;2.35;100.00
33265;BME280;31404;53.974;-1.086;2023-03-13T21:10:35;98273.01;;;2.32;100.00
33265;BME280;31404;53.974;-1.086;2023-03-13T21:15:35;98289.74;;;2.20;100.00
33265;BME280;31404;53.974;-1.086;2023-03-13T21:20:36;98293.40;;;1.31;100.00
33265;BME280;31404;53.974;-1.086;2023-03-13T21:25:35;98312.17;;;2.00;100.00
33265;BME280;31404;53.974;-1.086;2023-03-13T21:30:35;98327.97;;;1.54;100.00
33265;BME280;31404;53.974;-1.086;2023-03-13T21:35:35;98342.07;;;2.76;100.00
33265;BME280;31404;53.974;-1.086;2023-03-13T21:40:35;98333.09;;;2.46;100.00
33265;BME280;31404;53.974;-1.086;2023-03-13T21:45:35;98341.50;;;3.28;100.00
33265;BME280;31404;53.974;-1.086;2023-03-13T21:50:34;98360.49;;;3.33;100.00
33265;BME280;31404;53.974;-1.086;2023-03-13T21:55:34;98369.40;;;2.91;100.00
33265;BME280;31404;53.974;-1.086;2023-03-13T22:00:35;98357.65;;;3.19;100.00
33265;BME280;31404;53.974;-1.086;2023-03-13T22:10:37;98388.74;;;2.78;100.00
33265;BME280;31404;53.974;-1.086;2023-03-13T22:15:35;98409.14;;;2.70;100.00
33265;BME280;31404;53.974;-1.086;2023-03-13T22:20:35;98422.58;;;2.38;100.00
33265;BME280;31404;53.974;-1.086;2023-03-13T22:25:36;98427.96;;;3.18;100.00
33265;BME280;31404;53.974;-1.086;2023-03-13T22:30:36;98448.04;;;2.35;100.00
33265;BME280;31404;53.974;-1.086;2023-03-13T22:35:35;98458.03;;;1.67;100.00
33265;BME280;31404;53.974;-1.086;2023-03-13T22:40:35;98473.68;;;1.40;100.00
33265;BME280;31404;53.974;-1.086;2023-03-13T22:45:35;98483.24;;;3.27;100.00
33265;BME280;31404;53.974;-1.086;2023-03-13T22:50:35;98485.76;;;2.20;100.00
33265;BME280;31404;53.974;-1.086;2023-03-13T22:55:35;98485.60;;;2.12;100.00
33265;BME280;31404;53.974;-1.086;2023-03-13T23:00:35;98499.05;;;2.47;100.00
33265;BME280;31404;53.974;-1.086;2023-03-13T23:05:36;98517.55;;;3.51;100.00
33265;BME280;31404;53.974;-1.086;2023-03-13T23:10:35;98532.37;;;2.62;100.00
33265;BME280;31404;53.974;-1.086;2023-03-13T23:15:34;98555.87;;;3.59;100.00
33265;BME280;31404;53.974;-1.086;2023-03-13T23:20:36;98560.52;;;2.88;100.00
33265;BME280;31404;53.974;-1.086;2023-03-13T23:25:37;98573.32;;;2.57;100.00
33265;BME280;31404;53.974;-1.086;2023-03-13T23:30:35;98588.01;;;2.56;100.00
33265;BME280;31404;53.974;-1.086;2023-03-13T23:35:35;98601.57;;;2.56;100.00
33265;BME280;31404;53.974;-1.086;2023-03-13T23:40:35;98607.06;;;3.13;100.00
33265;BME280;31404;53.974;-1.086;2023-03-13T23:45:35;98617.51;;;3.11;100.00
33265;BME280;31404;53.974;-1.086;2023-03-13T23:50:35;98634.68;;;2.57;100.00
33265;BME280;31404;53.974;-1.086;2023-03-13T23:55:35;98648.62;;;2.53;100.00
